createdAt,value
2023-01-03T00:00:18.858Z,100916.66
2023-01-03T00:02:45.507Z,100903.31
2023-01-03T00:05:12.059Z,100901.31
2023-01-03T00:07:38.853Z,100900.94
2023-01-03T00:10:09.594Z,100889.47
2023-01-03T00:12:38.093Z,100886.25
2023-01-03T00:15:05.185Z,100888.34
2023-01-03T00:17:31.755Z,100886.94
2023-01-03T00:19:58.423Z,100887.28
2023-01-03T00:22:25.025Z,100905.75
2023-01-03T00:24:53.204Z,100891.22
2023-01-03T00:27:19.830Z,100892.78
2023-01-03T00:29:46.459Z,100888.72
2023-01-03T00:32:13.794Z,100882.69
2023-01-03T00:34:43.175Z,100885.63
2023-01-03T00:37:10.046Z,100875.53
2023-01-03T00:39:36.574Z,100877.25
2023-01-03T00:42:03.205Z,100865.66
2023-01-03T00:44:29.788Z,100865.66
2023-01-03T00:46:56.347Z,100866.34
2023-01-03T00:49:22.924Z,100868.16
2023-01-03T00:51:50.063Z,100877.56
2023-01-03T00:54:16.854Z,100880.25
2023-01-03T00:56:46.094Z,100869.19
2023-01-03T00:59:14.433Z,100865.88
2023-01-03T01:01:47.069Z,100869.03
2023-01-03T01:04:17.587Z,100876.00
2023-01-03T01:06:50.255Z,100867.44
2023-01-03T01:09:21.953Z,100869.25
2023-01-03T01:11:49.257Z,100865.19
2023-01-03T01:14:20.264Z,100866.91
2023-01-03T01:17:01.195Z,100881.84
2023-01-03T01:19:36.551Z,100880.56
2023-01-03T01:22:03.304Z,100875.22
2023-01-03T01:24:30.531Z,100865.59
2023-01-03T01:26:57.118Z,100862.63
2023-01-03T01:29:24.080Z,100871.53
2023-01-03T01:31:51.106Z,100881.41
2023-01-03T01:34:17.843Z,100890.63
2023-01-03T01:36:45.530Z,100901.72
2023-01-03T01:39:21.043Z,100902.78
2023-01-03T01:42:08.206Z,100897.31
2023-01-03T01:45:03.059Z,100898.81
2023-01-03T01:47:49.829Z,100915.22
2023-01-03T01:50:44.508Z,100930.41
2023-01-03T01:53:44.404Z,100922.75
2023-01-03T01:56:19.265Z,100912.03
2023-01-03T01:58:50.152Z,100900.06
2023-01-03T02:01:19.111Z,100886.28
2023-01-03T02:03:55.399Z,100878.47
2023-01-03T02:06:24.104Z,100863.88
2023-01-03T02:08:51.594Z,100851.44
2023-01-03T02:11:30.337Z,100838.03
2023-01-03T02:14:02.993Z,100835.91
2023-01-03T02:16:48.553Z,100845.38
2023-01-03T02:19:56.548Z,100832.22
2023-01-03T02:22:23.026Z,100820.34
2023-01-03T02:24:49.435Z,100805.91
2023-01-03T02:27:27.832Z,100785.41
2023-01-03T02:30:13.068Z,100791.69
2023-01-03T02:32:42.895Z,100788.72
2023-01-03T02:35:22.708Z,100792.28
2023-01-03T02:38:02.270Z,100792.16
2023-01-03T02:40:38.859Z,100789.66
2023-01-03T02:43:24.599Z,100776.47
2023-01-03T02:46:07.466Z,100775.03
2023-01-03T02:48:55.599Z,100767.53
2023-01-03T02:51:52.975Z,100764.31
2023-01-03T02:54:27.472Z,100759.50
2023-01-03T02:57:04.171Z,100765.75
2023-01-03T02:59:38.491Z,100751.44
2023-01-03T03:02:07.032Z,100742.97
2023-01-03T03:04:37.913Z,100729.28
2023-01-03T03:07:09.405Z,100722.97
2023-01-03T03:09:55.861Z,100731.16
2023-01-03T03:12:43.896Z,100719.16
2023-01-03T03:15:14.505Z,100713.91
2023-01-03T03:17:42.803Z,100708.66
2023-01-03T03:20:35.682Z,100702.78
2023-01-03T03:23:27.378Z,100696.38
2023-01-03T03:26:08.236Z,100701.34
2023-01-03T03:28:38.427Z,100697.59
2023-01-03T03:31:12.593Z,100692.34
2023-01-03T03:33:45.246Z,100694.00
2023-01-03T03:36:43.918Z,100697.03
2023-01-03T03:39:32.658Z,100688.56
2023-01-03T03:42:47.252Z,100682.03
2023-01-03T03:45:22.397Z,100682.56
2023-01-03T03:48:07.958Z,100672.84
2023-01-03T03:50:43.283Z,100659.88
2023-01-03T03:53:12.451Z,100660.41
2023-01-03T03:55:47.767Z,100670.81
2023-01-03T03:58:36.934Z,100653.78
2023-01-03T04:01:04.933Z,100653.97
2023-01-03T04:03:32.838Z,100661.22
2023-01-03T04:06:06.352Z,100665.28
2023-01-03T04:08:32.853Z,100665.69
2023-01-03T04:11:08.633Z,100664.97
2023-01-03T04:13:37.790Z,100672.38
2023-01-03T04:16:05.679Z,100700.81
2023-01-03T04:18:32.371Z,100703.84
2023-01-03T04:20:58.972Z,100704.84
2023-01-03T04:23:25.508Z,100719.75
2023-01-03T04:25:52.699Z,100740.66
2023-01-03T04:28:19.628Z,100738.34
2023-01-03T04:30:46.698Z,100728.13
2023-01-03T04:33:13.252Z,100728.06
2023-01-03T04:35:39.855Z,100714.03
2023-01-03T04:38:07.116Z,100700.63
2023-01-03T04:40:35.002Z,100691.53
2023-01-03T04:43:20.242Z,100689.50
2023-01-03T04:45:50.337Z,100679.19
2023-01-03T04:48:17.703Z,100690.56
2023-01-03T04:50:58.659Z,100697.72
2023-01-03T04:53:26.653Z,100691.13
2023-01-03T04:55:56.680Z,100673.69
2023-01-03T04:58:24.098Z,100674.28
2023-01-03T05:00:50.882Z,100673.22
2023-01-03T05:03:21.211Z,100659.38
2023-01-03T05:05:52.867Z,100660.53
2023-01-03T05:08:19.641Z,100661.41
2023-01-03T05:10:46.139Z,100661.78
2023-01-03T05:13:12.723Z,100660.03
2023-01-03T05:15:39.791Z,100659.75
2023-01-03T05:18:06.558Z,100651.75
2023-01-03T05:20:54.745Z,100659.56
2023-01-03T05:23:40.045Z,100666.47
2023-01-03T05:26:13.743Z,100662.31
2023-01-03T05:28:41.983Z,100658.31
2023-01-03T05:31:08.577Z,100675.06
2023-01-03T05:33:37.221Z,100684.53
2023-01-03T05:36:03.995Z,100694.06
2023-01-03T05:38:30.550Z,100701.16
2023-01-03T05:40:57.126Z,100699.28
2023-01-03T05:43:23.638Z,100709.44
2023-01-03T05:45:51.955Z,100723.47
2023-01-03T05:48:19.788Z,100719.22
2023-01-03T05:50:46.871Z,100729.88
2023-01-03T05:53:13.736Z,100735.31
2023-01-03T05:55:40.372Z,100736.94
2023-01-03T05:58:07.967Z,100739.44
2023-01-03T06:00:35.042Z,100747.56
2023-01-03T06:03:01.824Z,100732.28
2023-01-03T06:05:28.344Z,100732.72
2023-01-03T06:07:54.871Z,100718.91
2023-01-03T06:10:21.536Z,100724.00
2023-01-03T06:12:48.173Z,100729.47
2023-01-03T06:15:14.651Z,100729.94
2023-01-03T06:17:58.758Z,100739.22
2023-01-03T06:20:29.090Z,100739.91
2023-01-03T06:22:56.749Z,100745.94
2023-01-03T06:25:23.572Z,100747.69
2023-01-03T06:27:50.205Z,100748.00
2023-01-03T06:30:16.902Z,100744.00
2023-01-03T06:32:45.228Z,100744.22
2023-01-03T06:35:11.993Z,100739.88
2023-01-03T06:37:38.627Z,100738.22
2023-01-03T06:40:06.069Z,100743.75
2023-01-03T06:42:39.739Z,100748.69
2023-01-03T06:45:25.604Z,100755.94
2023-01-03T06:48:10.499Z,100759.44
2023-01-03T06:50:57.217Z,100757.88
2023-01-03T06:53:24.498Z,100762.94
2023-01-03T06:55:56.693Z,100758.91
2023-01-03T06:58:24.080Z,100767.47
2023-01-03T07:00:50.748Z,100765.13
2023-01-03T07:03:17.241Z,100765.06
2023-01-03T07:05:43.763Z,100761.97
2023-01-03T07:08:10.279Z,100754.00
2023-01-03T07:10:36.761Z,100747.91
2023-01-03T07:13:22.281Z,100739.16
2023-01-03T07:15:48.918Z,100737.06
2023-01-03T07:18:15.411Z,100731.63
2023-01-03T07:20:45.680Z,100731.56
2023-01-03T07:23:13.190Z,100730.53
2023-01-03T07:25:41.677Z,100723.44
2023-01-03T07:28:11.070Z,100723.44
2023-01-03T07:30:43.491Z,100733.91
2023-01-03T07:33:11.964Z,100729.28
2023-01-03T07:35:38.704Z,100728.19
2023-01-03T07:38:06.211Z,100727.59
2023-01-03T07:40:32.786Z,100735.47
2023-01-03T07:43:17.878Z,100738.88
2023-01-03T07:45:45.810Z,100734.53
2023-01-03T07:48:13.250Z,100739.38
2023-01-03T07:50:40.654Z,100740.44
2023-01-03T07:53:08.783Z,100750.03
2023-01-03T07:55:37.119Z,100748.59
2023-01-03T07:58:04.033Z,100751.91
2023-01-03T08:00:30.973Z,100761.31
2023-01-03T08:02:57.579Z,100764.41
2023-01-03T08:05:25.326Z,100763.56
2023-01-03T08:07:52.855Z,100770.91
2023-01-03T08:10:39.227Z,100769.16
2023-01-03T08:13:18.223Z,100779.69
2023-01-03T08:15:49.204Z,100780.47
2023-01-03T08:18:26.773Z,100774.97
2023-01-03T08:20:55.572Z,100786.28
2023-01-03T08:23:26.111Z,100780.06
2023-01-03T08:25:59.450Z,100784.22
2023-01-03T08:28:25.960Z,100795.47
2023-01-03T08:30:52.649Z,100795.75
2023-01-03T08:33:20.275Z,100805.72
2023-01-03T08:35:53.056Z,100810.66
2023-01-03T08:38:25.201Z,100817.19
2023-01-03T08:40:51.818Z,100814.91
2023-01-03T08:43:18.662Z,100834.09
2023-01-03T08:45:48.743Z,100833.38
2023-01-03T08:48:16.690Z,100840.75
2023-01-03T08:50:43.308Z,100840.28
2023-01-03T08:53:09.879Z,100846.78
2023-01-03T08:55:36.404Z,100849.47
2023-01-03T08:58:02.949Z,100853.19
2023-01-03T09:00:29.905Z,100852.09
2023-01-03T09:03:00.525Z,100856.75
2023-01-03T09:05:28.521Z,100852.13
2023-01-03T09:07:55.805Z,100858.13
2023-01-03T09:10:23.497Z,100878.72
2023-01-03T09:12:50.579Z,100898.38
2023-01-03T09:15:17.241Z,100900.56
2023-01-03T09:17:45.311Z,100904.00
2023-01-03T09:20:12.841Z,100921.72
2023-01-03T09:22:39.855Z,100910.25
2023-01-03T09:25:07.610Z,100915.44
2023-01-03T09:27:34.303Z,100903.78
2023-01-03T09:30:00.870Z,100917.56
2023-01-03T09:32:27.518Z,100909.09
2023-01-03T09:34:54.022Z,100924.38
2023-01-03T09:37:20.597Z,100927.22
2023-01-03T09:39:47.171Z,100931.19
2023-01-03T09:42:44.971Z,100944.13
2023-01-03T09:45:17.527Z,100948.53
2023-01-03T09:47:45.974Z,100962.31
2023-01-03T09:50:38.876Z,101005.91
2023-01-03T09:53:38.099Z,101005.16
2023-01-03T09:56:23.188Z,100999.75
2023-01-03T09:59:12.948Z,100983.16
2023-01-03T10:02:04.933Z,100981.69
2023-01-03T10:04:50.097Z,100979.69
2023-01-03T10:07:25.428Z,100978.03
2023-01-03T10:10:10.511Z,100980.72
2023-01-03T10:12:59.138Z,100995.06
2023-01-03T10:15:40.193Z,101007.44
2023-01-03T10:18:40.241Z,101008.19
2023-01-03T10:21:16.324Z,101014.47
2023-01-03T10:23:43.440Z,101020.31
2023-01-03T10:26:13.171Z,101039.75
2023-01-03T10:28:44.117Z,101053.22
2023-01-03T10:31:28.889Z,101072.00
2023-01-03T10:33:55.347Z,101080.28
2023-01-03T10:36:22.493Z,101104.66
2023-01-03T10:39:02.098Z,101115.25
2023-01-03T10:41:44.607Z,101129.66
2023-01-03T10:44:25.609Z,101112.97
2023-01-03T10:46:54.295Z,101098.75
2023-01-03T10:49:31.270Z,101104.94
2023-01-03T10:52:12.655Z,101100.47
2023-01-03T10:54:59.501Z,101112.16
2023-01-03T10:57:48.577Z,101085.22
2023-01-03T11:00:28.433Z,101098.53
2023-01-03T11:03:01.188Z,101075.31
2023-01-03T11:05:28.091Z,101083.88
2023-01-03T11:07:57.207Z,101094.00
2023-01-03T11:10:30.095Z,101095.81
2023-01-03T11:12:56.673Z,101098.31
2023-01-03T11:15:37.936Z,101093.28
2023-01-03T11:18:16.420Z,101087.06
2023-01-03T11:20:48.748Z,101108.72
2023-01-03T11:23:41.467Z,101130.38
2023-01-03T11:26:26.479Z,101138.00
2023-01-03T11:29:06.715Z,101136.59
2023-01-03T11:31:42.128Z,101152.22
2023-01-03T11:34:24.405Z,101141.91
2023-01-03T11:37:15.592Z,101127.97
2023-01-03T11:40:17.516Z,101117.56
2023-01-03T11:43:22.396Z,101156.34
2023-01-03T11:46:06.405Z,101148.44
2023-01-03T11:48:52.976Z,101161.75
2023-01-03T11:51:34.769Z,101170.97
2023-01-03T11:54:09.182Z,101182.34
2023-01-03T11:56:43.172Z,101197.16
2023-01-03T11:59:27.951Z,101193.31
2023-01-03T12:02:09.894Z,101202.94
2023-01-03T12:04:42.319Z,101190.41
2023-01-03T12:10:22.600Z,101206.91
2023-01-03T12:12:54.953Z,101195.25
2023-01-03T12:15:26.256Z,101204.91
2023-01-03T12:18:16.971Z,101204.97
2023-01-03T12:20:49.578Z,101197.56
2023-01-03T12:23:33.906Z,101190.34
2023-01-03T12:26:13.586Z,101197.50
2023-01-03T12:28:49.990Z,101201.56
2023-01-03T12:31:36.062Z,101194.75
2023-01-03T12:34:30.493Z,101200.81
2023-01-03T12:37:17.732Z,101205.13
2023-01-03T12:39:55.444Z,101199.00
2023-01-03T12:42:40.700Z,101190.41
2023-01-03T12:45:34.630Z,101199.28
2023-01-03T12:48:13.561Z,101188.28
2023-01-03T12:50:47.231Z,101193.84
2023-01-03T12:53:28.943Z,101199.47
2023-01-03T12:56:04.982Z,101204.72
2023-01-03T12:58:40.017Z,101196.06
2023-01-03T13:01:24.377Z,101194.13
2023-01-03T13:04:00.294Z,101187.78
2023-01-03T13:06:35.693Z,101181.91
2023-01-03T13:09:07.674Z,101171.78
2023-01-03T13:11:39.559Z,101180.06
2023-01-03T13:14:27.322Z,101180.16
2023-01-03T13:16:56.507Z,101178.97
2023-01-03T13:19:23.004Z,101186.16
2023-01-03T13:21:55.786Z,101192.16
2023-01-03T13:24:45.213Z,101185.34
2023-01-03T13:27:18.150Z,101186.63
2023-01-03T13:29:49.524Z,101183.16
2023-01-03T13:32:22.371Z,101190.41
2023-01-03T13:34:58.166Z,101189.63
2023-01-03T13:37:54.870Z,101191.97
2023-01-03T13:43:22.014Z,101188.72
2023-01-03T13:45:51.113Z,101193.78
2023-01-03T13:48:17.569Z,101190.00
2023-01-03T13:51:04.970Z,101187.03
2023-01-03T13:53:38.039Z,101197.72
2023-01-03T13:56:16.732Z,101193.06
2023-01-03T13:59:05.476Z,101201.16
2023-01-03T14:01:53.523Z,101197.97
2023-01-03T14:04:53.508Z,101204.63
2023-01-03T14:07:40.926Z,101210.16
2023-01-03T14:10:18.972Z,101207.13
2023-01-03T14:13:03.592Z,101212.84
2023-01-03T14:15:32.312Z,101206.56
2023-01-03T14:18:08.703Z,101205.44
2023-01-03T14:20:36.921Z,101202.31
2023-01-03T14:23:39.679Z,101196.59
2023-01-03T14:26:04.688Z,101197.50
2023-01-03T14:28:33.719Z,101188.84
2023-01-03T14:31:16.206Z,101190.75
2023-01-03T14:33:49.639Z,101198.47
2023-01-03T14:36:17.688Z,101194.00
2023-01-03T14:39:01.005Z,101185.19
2023-01-03T14:41:27.569Z,101192.25
2023-01-03T14:44:09.581Z,101198.59
2023-01-03T14:46:38.150Z,101191.31
2023-01-03T14:49:07.521Z,101198.59
2023-01-03T14:51:36.931Z,101206.03
2023-01-03T14:54:05.080Z,101215.56
2023-01-03T14:56:32.281Z,101214.34
2023-01-03T14:59:00.127Z,101224.97
2023-01-03T15:01:28.772Z,101223.50
2023-01-03T15:03:56.245Z,101232.28
2023-01-03T15:06:24.935Z,101238.41
2023-01-03T15:08:54.428Z,101238.66
2023-01-03T15:11:30.071Z,101246.81
2023-01-03T15:14:03.427Z,101242.16
2023-01-03T15:16:42.064Z,101240.59
2023-01-03T15:19:08.779Z,101244.25
2023-01-03T15:21:35.543Z,101248.66
2023-01-03T15:24:02.192Z,101256.81
2023-01-03T15:26:44.084Z,101254.00
2023-01-03T15:29:28.587Z,101259.13
2023-01-03T15:31:55.424Z,101260.75
2023-01-03T15:34:28.591Z,101267.97
2023-01-03T15:37:01.761Z,101267.59
2023-01-03T15:39:46.642Z,101266.63
2023-01-03T15:42:45.228Z,101267.59
2023-01-03T15:45:24.517Z,101262.63
2023-01-03T15:47:55.929Z,101269.09
2023-01-03T15:50:27.422Z,101259.72
2023-01-03T15:52:53.969Z,101260.94
2023-01-03T15:55:20.581Z,101254.97
2023-01-03T15:57:52.482Z,101259.84
2023-01-03T16:00:22.682Z,101259.84
2023-01-03T16:02:50.307Z,101258.13
2023-01-03T16:05:22.022Z,101260.50
2023-01-03T16:07:49.407Z,101252.44
2023-01-03T16:10:16.096Z,101265.06
2023-01-03T16:12:43.675Z,101264.34
2023-01-03T16:15:22.296Z,101263.72
2023-01-03T16:17:50.559Z,101267.63
2023-01-03T16:20:18.938Z,101258.41
2023-01-03T16:22:59.653Z,101261.06
2023-01-03T16:25:28.744Z,101261.06
2023-01-03T16:27:55.271Z,101253.94
2023-01-03T16:30:21.836Z,101254.59
2023-01-03T16:32:48.403Z,101251.56
2023-01-03T16:35:17.841Z,101249.44
2023-01-03T16:37:44.673Z,101243.41
2023-01-03T16:40:17.019Z,101242.91
2023-01-03T16:42:43.694Z,101241.53
2023-01-03T16:45:10.762Z,101229.63
2023-01-03T16:47:37.639Z,101233.50
2023-01-03T16:50:07.935Z,101235.72
2023-01-03T16:52:40.643Z,101231.47
2023-01-03T16:55:29.914Z,101229.31
2023-01-03T16:57:57.325Z,101217.66
2023-01-03T17:00:26.740Z,101210.72
2023-01-03T17:02:56.684Z,101207.84
2023-01-03T17:05:23.602Z,101202.00
2023-01-03T17:07:52.873Z,101199.25
2023-01-03T17:10:40.294Z,101189.09
2023-01-03T17:13:12.719Z,101195.97
2023-01-03T17:15:41.338Z,101202.56
2023-01-03T17:18:21.415Z,101199.78
2023-01-03T17:21:02.193Z,101197.72
2023-01-03T17:23:39.240Z,101189.81
2023-01-03T17:26:06.121Z,101173.41
2023-01-03T17:28:34.344Z,101179.38
2023-01-03T17:31:01.446Z,101176.13
2023-01-03T17:33:33.860Z,101181.09
2023-01-03T17:36:00.937Z,101168.00
2023-01-03T17:38:29.739Z,101166.31
2023-01-03T17:40:57.316Z,101178.88
2023-01-03T17:43:24.975Z,101174.16
2023-01-03T17:46:20.635Z,101176.38
2023-01-03T17:49:08.351Z,101169.66
2023-01-03T17:51:35.019Z,101174.22
2023-01-03T17:54:01.783Z,101171.97
2023-01-03T17:56:29.620Z,101172.97
2023-01-03T17:58:56.931Z,101168.00
2023-01-03T18:01:23.584Z,101169.63
2023-01-03T18:03:50.329Z,101144.00
2023-01-03T18:06:24.050Z,101145.63
2023-01-03T18:08:52.395Z,101136.66
2023-01-03T18:11:27.098Z,101129.22
2023-01-03T18:13:53.647Z,101132.19
2023-01-03T18:16:22.833Z,101121.22
2023-01-03T18:18:49.653Z,101102.97
2023-01-03T18:21:19.209Z,101099.16
2023-01-03T18:23:46.184Z,101096.25
2023-01-03T18:26:16.298Z,101104.31
2023-01-03T18:28:43.449Z,101110.56
2023-01-03T18:31:15.465Z,101109.19
2023-01-03T18:33:42.253Z,101112.50
2023-01-03T18:36:24.805Z,101108.91
2023-01-03T18:38:55.861Z,101101.47
2023-01-03T18:41:27.239Z,101097.59
2023-01-03T18:43:53.913Z,101086.81
2023-01-03T18:46:21.614Z,101080.66
2023-01-03T18:48:48.357Z,101073.53
2023-01-03T18:51:16.774Z,101066.09
2023-01-03T18:53:45.500Z,101060.38
2023-01-03T18:56:36.177Z,101057.03
2023-01-03T18:59:07.318Z,101061.31
2023-01-03T19:01:34.506Z,101072.41
2023-01-03T19:04:01.240Z,101080.75
2023-01-03T19:06:33.806Z,101085.19
2023-01-03T19:09:04.520Z,101087.59
2023-01-03T19:11:34.322Z,101089.19
2023-01-03T19:14:02.534Z,101092.72
2023-01-03T19:16:31.786Z,101094.09
2023-01-03T19:18:59.355Z,101096.88
2023-01-03T19:21:31.586Z,101086.09
2023-01-03T19:24:03.897Z,101077.16
2023-01-03T19:26:36.408Z,101066.75
2023-01-03T19:29:06.121Z,101070.97
2023-01-03T19:31:41.967Z,101052.97
2023-01-03T19:34:19.739Z,101048.53
2023-01-03T19:36:47.362Z,101041.72
2023-01-03T19:39:15.216Z,101035.13
2023-01-03T19:42:05.878Z,101020.75
2023-01-03T19:44:33.163Z,101010.94
2023-01-03T19:47:00.715Z,101017.88
2023-01-03T19:49:27.558Z,101011.56
2023-01-03T19:51:56.759Z,101001.50
2023-01-03T19:54:24.295Z,100999.44
2023-01-03T19:57:02.111Z,100996.16
2023-01-03T19:59:34.282Z,100993.66
2023-01-03T20:04:49.526Z,100988.94
2023-01-03T20:07:16.250Z,100982.88
2023-01-03T20:09:42.832Z,100984.31
2023-01-03T20:12:14.103Z,100981.66
2023-01-03T20:14:43.841Z,100983.28
2023-01-03T20:17:24.841Z,100985.72
2023-01-03T20:19:52.605Z,100990.59
2023-01-03T20:22:53.551Z,100989.63
2023-01-03T20:25:21.359Z,100995.41
2023-01-03T20:27:48.093Z,101002.78
2023-01-03T20:30:18.050Z,100999.47
2023-01-03T20:32:44.982Z,101003.75
2023-01-03T20:35:55.967Z,101000.59
2023-01-03T20:38:01.148Z,101002.09
2023-01-03T20:40:27.742Z,101009.44
2023-01-03T20:42:54.350Z,101019.22
2023-01-03T20:45:21.778Z,101017.41
2023-01-03T20:47:54.291Z,101025.16
2023-01-03T20:50:28.826Z,101017.72
2023-01-03T20:52:57.282Z,101024.59
2023-01-03T20:55:25.768Z,101026.88
2023-01-03T20:57:52.815Z,101017.94
2023-01-03T21:00:26.590Z,101018.53
2023-01-03T21:02:53.517Z,101018.47
2023-01-03T21:05:21.195Z,101016.63
2023-01-03T21:08:08.976Z,101015.66
2023-01-03T21:10:41.984Z,101016.44
2023-01-03T21:13:10.328Z,101015.56
2023-01-03T21:15:38.089Z,101018.63
2023-01-03T21:18:06.312Z,101018.19
2023-01-03T21:20:33.384Z,101030.34
2023-01-03T21:23:00.181Z,101028.19
2023-01-03T21:25:32.855Z,101029.31
2023-01-03T21:28:01.053Z,101026.00
2023-01-03T21:30:30.101Z,101022.03
2023-01-03T21:32:56.885Z,101017.44
2023-01-03T21:35:24.481Z,101020.16
2023-01-03T21:37:52.565Z,101023.78
2023-01-03T21:40:28.339Z,101027.91
2023-01-03T21:43:05.443Z,101029.06
2023-01-03T21:45:39.244Z,101014.44
2023-01-03T21:48:09.319Z,101020.78
2023-01-03T21:50:39.584Z,101014.63
2023-01-03T21:53:06.721Z,101021.59
2023-01-03T21:55:33.690Z,101019.94
2023-01-03T21:58:00.982Z,101016.25
2023-01-03T22:00:27.600Z,101021.69
2023-01-03T22:03:12.848Z,101013.94
2023-01-03T22:05:39.545Z,101016.31
2023-01-03T22:08:06.789Z,101016.00
2023-01-03T22:10:34.326Z,101023.56
2023-01-03T22:13:02.940Z,101025.88
2023-01-03T22:15:29.463Z,101034.13
2023-01-03T22:17:56.893Z,101034.69
2023-01-03T22:20:25.817Z,101041.94
2023-01-03T22:22:52.870Z,101047.88
2023-01-03T22:25:21.567Z,101050.50
2023-01-03T22:27:48.952Z,101055.25
2023-01-03T22:30:18.107Z,101049.53
2023-01-03T22:32:46.423Z,101047.44
2023-01-03T22:35:16.386Z,101048.66
2023-01-03T22:37:42.984Z,101048.03
2023-01-03T22:40:13.068Z,101045.06
2023-01-03T22:42:39.699Z,101059.81
2023-01-03T22:45:07.145Z,101062.38
2023-01-03T22:47:38.425Z,101063.84
2023-01-03T22:50:06.619Z,101063.94
2023-01-03T22:52:33.724Z,101064.75
2023-01-03T22:55:00.540Z,101053.66
2023-01-03T22:57:27.142Z,101061.59
2023-01-03T22:59:53.679Z,101059.66
2023-01-03T23:02:26.102Z,101054.88
2023-01-03T23:04:52.822Z,101059.97
2023-01-03T23:07:19.744Z,101065.41
2023-01-03T23:09:46.369Z,101063.94
2023-01-03T23:12:31.467Z,101058.06
2023-01-03T23:14:57.925Z,101058.56
2023-01-03T23:17:43.244Z,101055.13
2023-01-03T23:20:10.355Z,101056.50
2023-01-03T23:22:36.888Z,101067.53
2023-01-03T23:25:03.686Z,101064.88
2023-01-03T23:27:30.539Z,101059.97
2023-01-03T23:29:57.110Z,101054.38
2023-01-03T23:32:23.672Z,101051.56
2023-01-03T23:34:50.332Z,101051.47
2023-01-03T23:37:16.880Z,101053.03
2023-01-03T23:39:43.781Z,101045.72
2023-01-03T23:42:10.415Z,101052.88
2023-01-03T23:44:36.951Z,101048.25
2023-01-03T23:47:09.259Z,101051.63
2023-01-03T23:49:37.767Z,101050.13
2023-01-03T23:52:04.434Z,101055.75
2023-01-03T23:54:30.981Z,101065.03
2023-01-03T23:56:57.541Z,101057.31
2023-01-03T23:59:24.087Z,101070.22
